Time;durP1;ratioP1;P1;durP2;ratioP2;P2;SDS_P1;SDS_P2;PMS_P1;PMS_P2;Temp;Humidity;BMP_temperature;BMP_pressure;BME280_temperature;BME280_humidity;BME280_pressure;Samples;Min_cycle;Max_cycle;Signal;HPM_P1;HPM_P2
2021/12/23 00:01:52;;;;;;;31.80;15.50;;;-5.20;99.90;;;;;;5035330;28;20311;-77
2021/12/23 00:04:17;;;;;;;35.73;17.77;;;-5.10;99.90;;;;;;5033254;28;20193;-77
2021/12/23 00:06:46;;;;;;;39.33;17.80;;;-5.20;99.90;;;;;;5032727;28;20549;-77
2021/12/23 00:09:12;;;;;;;44.75;21.63;;;-5.20;99.90;;;;;;5015219;28;20343;-77
2021/12/23 00:11:37;;;;;;;42.20;19.97;;;-5.20;99.90;;;;;;5015524;28;20265;-77
2021/12/23 00:14:06;;;;;;;40.20;19.30;;;-5.20;99.90;;;;;;5033723;28;20705;-78
2021/12/23 00:19:17;;;;;;;46.53;20.38;;;-5.20;99.90;;;;;;5035936;28;20176;-78
2021/12/23 00:24:26;;;;;;;37.08;18.15;;;-5.20;99.90;;;;;;5022174;28;20239;-78
2021/12/23 00:26:52;;;;;;;34.63;17.40;;;-5.20;99.90;;;;;;5036810;28;20603;-77
2021/12/23 00:29:18;;;;;;;36.60;17.27;;;-5.10;99.90;;;;;;5035045;28;20192;-78
2021/12/23 00:31:43;;;;;;;37.77;18.20;;;-5.10;99.90;;;;;;5016939;28;20251;-78
2021/12/23 00:34:10;;;;;;;38.37;17.10;;;-5.00;99.90;;;;;;5020630;28;20230;-78
2021/12/23 00:36:37;;;;;;;29.80;15.40;;;-5.00;99.90;;;;;;5033902;28;20681;-77
2021/12/23 00:39:06;;;;;;;48.50;18.67;;;-5.00;99.90;;;;;;5033226;28;20235;-78
2021/12/23 00:41:31;;;;;;;34.15;17.45;;;-5.00;99.90;;;;;;5033857;28;20188;-78
2021/12/23 00:43:58;;;;;;;30.83;15.60;;;-5.00;99.90;;;;;;5035115;28;20185;-78
2021/12/23 00:46:24;;;;;;;30.92;15.70;;;-5.10;99.90;;;;;;5036178;28;20181;-78
2021/12/23 00:48:49;;;;;;;30.83;15.33;;;-5.10;99.90;;;;;;5037109;28;20207;-78
2021/12/23 00:51:15;;;;;;;29.80;15.33;;;-5.10;99.90;;;;;;5020023;28;20259;-78
2021/12/23 00:53:41;;;;;;;31.97;16.23;;;-5.20;99.90;;;;;;5036444;28;20192;-78
2021/12/23 00:56:11;;;;;;;31.37;15.53;;;-5.30;99.90;;;;;;5032056;28;20596;-77
2021/12/23 00:58:37;;;;;;;32.22;14.60;;;-5.40;99.90;;;;;;5030814;28;20235;-80
2021/12/23 01:01:03;;;;;;;30.47;14.67;;;-5.30;99.90;;;;;;5015646;28;20207;-77
2021/12/23 01:03:29;;;;;;;29.88;14.15;;;-5.30;99.90;;;;;;5010844;28;20415;-77
2021/12/23 01:05:56;;;;;;;26.75;13.40;;;-5.40;99.90;;;;;;5029694;28;20184;-78
2021/12/23 01:08:22;;;;;;;29.35;13.55;;;-5.40;99.90;;;;;;5028468;28;20210;-76
2021/12/23 01:10:53;;;;;;;26.57;13.23;;;-5.50;99.90;;;;;;5028252;28;20278;-76
2021/12/23 01:13:20;;;;;;;27.73;13.45;;;-5.50;99.90;;;;;;5027423;28;20227;-76
2021/12/23 01:16:07;;;;;;;30.70;14.32;;;-5.50;99.90;;;;;;5028498;28;20226;-76
2021/12/23 01:18:42;;;;;;;30.05;13.57;;;-5.50;99.90;;;;;;5027932;28;20204;-76
2021/12/23 01:21:16;;;;;;;30.35;14.35;;;-5.40;99.90;;;;;;5030671;28;20258;-75
2021/12/23 01:23:48;;;;;;;27.27;13.13;;;-5.20;99.90;;;;;;5032913;28;20649;-76
2021/12/23 01:26:19;;;;;;;23.92;12.45;;;-5.00;99.90;;;;;;5031972;28;20253;-76
2021/12/23 01:28:48;;;;;;;27.20;14.00;;;-4.80;99.90;;;;;;5032135;28;20196;-79
2021/12/23 01:31:13;;;;;;;24.90;11.80;;;-4.60;99.90;;;;;;5031179;28;20196;-74
2021/12/23 01:33:39;;;;;;;30.77;14.10;;;-4.40;99.90;;;;;;5030549;28;20226;-74
2021/12/23 01:36:05;;;;;;;34.60;14.73;;;-4.50;99.90;;;;;;5032036;28;20938;-75
2021/12/23 01:38:30;;;;;;;33.33;15.17;;;-4.60;99.90;;;;;;5031754;28;20212;-75
2021/12/23 01:40:56;;;;;;;31.53;14.80;;;-4.70;99.90;;;;;;5030453;28;20513;-75
2021/12/23 01:43:22;;;;;;;33.30;17.40;;;-4.80;99.90;;;;;;5031618;28;20181;-75
2021/12/23 01:45:49;;;;;;;30.53;15.13;;;-4.90;99.90;;;;;;5031682;28;20176;-75
2021/12/23 01:48:16;;;;;;;28.85;14.70;;;-4.90;99.90;;;;;;5030192;28;20234;-75
2021/12/23 01:50:42;;;;;;;27.45;14.35;;;-4.80;99.90;;;;;;5030315;28;20200;-75
2021/12/23 01:53:09;;;;;;;27.55;13.13;;;-4.80;99.90;;;;;;5031520;28;20263;-75
2021/12/23 01:55:36;;;;;;;30.17;14.13;;;-4.80;99.90;;;;;;5030167;28;20192;-75
2021/12/23 01:58:03;;;;;;;30.00;14.48;;;-4.80;99.90;;;;;;5029847;28;20225;-76
2021/12/23 02:00:33;;;;;;;27.13;14.48;;;-4.60;99.90;;;;;;5029870;28;20215;-76
2021/12/23 02:03:00;;;;;;;29.63;14.32;;;-4.60;99.90;;;;;;5029958;28;20195;-76
2021/12/23 02:05:30;;;;;;;30.42;15.20;;;-4.60;99.90;;;;;;5029994;28;20254;-76
2021/12/23 02:07:55;;;;;;;29.42;14.20;;;-4.60;99.90;;;;;;5031265;28;20224;-75
2021/12/23 02:10:22;;;;;;;33.47;15.50;;;-4.60;99.90;;;;;;5031136;28;20342;-76
2021/12/23 02:12:50;;;;;;;30.85;13.85;;;-4.60;99.90;;;;;;5031284;28;20187;-76
2021/12/23 02:15:17;;;;;;;33.40;16.00;;;-4.60;99.90;;;;;;5031240;28;20192;-76
2021/12/23 02:17:45;;;;;;;28.02;15.40;;;-4.60;99.90;;;;;;5031147;28;20220;-76
2021/12/23 02:20:13;;;;;;;29.58;14.23;;;-4.60;99.90;;;;;;5031132;28;20183;-76
2021/12/23 02:22:41;;;;;;;26.80;13.07;;;-4.50;99.90;;;;;;5031082;28;20176;-75
2021/12/23 02:25:08;;;;;;;26.50;12.20;;;-4.30;99.90;;;;;;5030993;28;20184;-75
2021/12/23 02:27:33;;;;;;;27.02;14.55;;;-4.00;99.90;;;;;;5029246;28;20212;-75
2021/12/23 02:29:59;;;;;;;28.73;13.50;;;-3.80;99.90;;;;;;5029469;28;20187;-76
2021/12/23 02:32:25;;;;;;;26.63;13.30;;;-3.60;99.90;;;;;;5030343;28;20274;-76
2021/12/23 02:34:50;;;;;;;30.00;14.87;;;-3.40;99.90;;;;;;5029504;28;20192;-76
2021/12/23 02:37:16;;;;;;;24.53;11.60;;;-3.30;99.90;;;;;;5029268;28;20219;-76
2021/12/23 02:39:43;;;;;;;25.23;12.47;;;-3.20;99.90;;;;;;5012841;28;20183;-76
2021/12/23 02:42:09;;;;;;;22.70;11.85;;;-3.10;99.90;;;;;;5030707;28;20176;-75
2021/12/23 02:44:35;;;;;;;23.08;12.02;;;-3.10;99.90;;;;;;5030721;28;20638;-75
2021/12/23 02:47:00;;;;;;;30.80;16.60;;;-2.90;99.90;;;;;;5029536;28;20204;-75
2021/12/23 02:49:26;;;;;;;32.03;15.10;;;-2.80;99.90;;;;;;5031036;28;20177;-75
2021/12/23 02:51:53;;;;;;;29.80;14.70;;;-3.00;99.90;;;;;;5030698;28;20200;-75
2021/12/23 02:54:18;;;;;;;34.80;16.90;;;-3.20;99.90;;;;;;5031030;28;20207;-76
2021/12/23 02:56:45;;;;;;;34.77;16.53;;;-3.30;99.90;;;;;;5029551;28;20212;-75
2021/12/23 02:59:11;;;;;;;33.70;16.55;;;-3.40;99.90;;;;;;5031200;28;20486;-75
2021/12/23 03:01:37;;;;;;;38.15;18.40;;;-3.60;99.90;;;;;;5031181;28;20181;-75
2021/12/23 03:04:03;;;;;;;35.47;17.40;;;-3.70;99.90;;;;;;5031269;28;20188;-75
2021/12/23 03:06:29;;;;;;;34.50;16.15;;;-3.80;99.90;;;;;;5031178;28;20180;-75
2021/12/23 03:08:59;;;;;;;36.20;18.33;;;-4.00;99.90;;;;;;5031056;28;20362;-75
2021/12/23 03:11:26;;;;;;;34.08;17.40;;;-4.00;99.90;;;;;;5030895;28;20638;-75
2021/12/23 03:13:52;;;;;;;37.20;17.80;;;-4.00;99.90;;;;;;5030942;28;20177;-75
2021/12/23 03:16:21;;;;;;;165.13;54.75;;;-4.10;99.90;;;;;;5029119;28;20197;-76
2021/12/23 03:18:47;;;;;;;93.40;35.05;;;-4.20;99.90;;;;;;5028999;28;20208;-75
2021/12/23 03:21:13;;;;;;;57.63;23.05;;;-4.20;99.90;;;;;;5030414;28;20176;-75
2021/12/23 03:23:39;;;;;;;48.50;20.87;;;-4.10;99.90;;;;;;5030155;28;20184;-75
2021/12/23 03:26:05;;;;;;;34.40;17.80;;;-4.10;99.90;;;;;;5030134;28;20532;-76
2021/12/23 03:28:31;;;;;;;38.63;18.70;;;-4.20;99.90;;;;;;5012416;28;20230;-75
2021/12/23 03:30:56;;;;;;;35.73;18.83;;;-4.30;99.90;;;;;;5028925;28;20184;-75
2021/12/23 03:33:22;;;;;;;36.67;17.10;;;-4.30;99.90;;;;;;5029953;28;20943;-76
2021/12/23 03:35:48;;;;;;;64.60;26.80;;;-4.30;99.90;;;;;;5029883;28;20848;-76
2021/12/23 03:38:15;;;;;;;73.40;27.50;;;-4.30;99.90;;;;;;5030546;28;20602;-76
2021/12/23 03:40:41;;;;;;;54.03;23.30;;;-4.40;99.90;;;;;;5029482;28;20230;-76
2021/12/23 03:43:10;;;;;;;42.45;20.70;;;-4.40;99.90;;;;;;5028561;28;20180;-76
2021/12/23 03:45:37;;;;;;;35.38;15.77;;;-4.40;99.90;;;;;;5029527;28;20290;-76
2021/12/23 03:48:02;;;;;;;34.70;17.70;;;-4.30;99.90;;;;;;5029544;28;20215;-76
2021/12/23 03:50:28;;;;;;;32.80;15.87;;;-4.00;99.90;;;;;;5028009;28;20203;-76
2021/12/23 03:52:54;;;;;;;28.67;15.33;;;-3.70;99.90;;;;;;5029372;28;20423;-75
2021/12/23 03:55:20;;;;;;;32.90;14.87;;;-3.50;99.90;;;;;;5028131;28;20188;-76
2021/12/23 03:57:46;;;;;;;34.90;15.90;;;-3.30;99.90;;;;;;5029284;28;20296;-76
2021/12/23 04:00:17;;;;;;;29.17;13.80;;;-3.10;99.90;;;;;;5027700;28;20427;-76
2021/12/23 04:02:43;;;;;;;33.42;16.30;;;-3.00;99.90;;;;;;5027914;28;20680;-76
2021/12/23 04:05:09;;;;;;;29.80;14.23;;;-2.90;99.90;;;;;;5029272;28;20197;-76
2021/12/23 04:07:36;;;;;;;27.92;15.90;;;-2.90;99.90;;;;;;5029190;28;20486;-77
2021/12/23 04:10:03;;;;;;;27.50;13.20;;;-2.80;99.90;;;;;;5029340;28;20184;-77
2021/12/23 04:12:29;;;;;;;29.95;14.80;;;-2.80;99.90;;;;;;5029129;28;20192;-76
2021/12/23 04:14:54;;;;;;;27.80;13.60;;;-2.70;99.90;;;;;;5029173;28;20657;-76
2021/12/23 04:17:20;;;;;;;26.93;13.70;;;-2.60;99.90;;;;;;5027476;28;20220;-77
2021/12/23 04:19:47;;;;;;;27.10;13.60;;;-2.70;99.90;;;;;;5029185;28;20672;-77
2021/12/23 04:22:13;;;;;;;31.98;16.05;;;-2.60;99.90;;;;;;5029520;28;20183;-77
2021/12/23 04:24:39;;;;;;;30.30;13.95;;;-2.60;99.90;;;;;;5030427;28;20180;-77
2021/12/23 04:27:05;;;;;;;25.98;13.52;;;-2.60;99.90;;;;;;5030392;28;20231;-77
2021/12/23 04:29:31;;;;;;;28.43;13.93;;;-2.60;99.90;;;;;;5030642;28;20944;-76
2021/12/23 04:31:57;;;;;;;27.63;13.90;;;-2.60;99.90;;;;;;5029082;28;20969;-76
2021/12/23 04:34:22;;;;;;;24.73;12.65;;;-2.50;99.90;;;;;;5027611;28;20199;-76
2021/12/23 04:36:48;;;;;;;28.53;13.73;;;-2.50;99.90;;;;;;5027564;28;20212;-76
2021/12/23 04:39:14;;;;;;;26.50;13.70;;;-2.50;99.90;;;;;;5028352;28;20184;-77
2021/12/23 04:41:39;;;;;;;30.83;13.67;;;-2.50;99.90;;;;;;5030640;28;20302;-77
2021/12/23 04:44:06;;;;;;;28.63;14.70;;;-2.60;99.90;;;;;;5028047;28;20177;-76
2021/12/23 04:46:32;;;;;;;25.42;12.13;;;-2.40;99.90;;;;;;5028065;28;20184;-76
2021/12/23 04:48:57;;;;;;;29.33;13.55;;;-2.30;99.90;;;;;;5029522;28;20271;-77
2021/12/23 04:51:23;;;;;;;32.10;16.47;;;-2.10;99.90;;;;;;5029416;28;20656;-77
2021/12/23 04:53:49;;;;;;;33.73;17.83;;;-2.40;99.90;;;;;;5029709;28;20195;-77
2021/12/23 04:56:17;;;;;;;36.63;18.50;;;-2.80;99.90;;;;;;5030156;28;20223;-77
2021/12/23 04:58:44;;;;;;;31.33;16.88;;;-3.30;99.90;;;;;;5028983;28;21071;-76
2021/12/23 05:01:19;;;;;;;31.77;16.15;;;-3.50;99.90;;;;;;5029274;28;20215;-76
2021/12/23 05:03:47;;;;;;;34.10;17.75;;;-3.60;99.90;;;;;;5029085;28;20180;-77
2021/12/23 05:06:15;;;;;;;35.50;18.70;;;-3.60;99.90;;;;;;5028965;28;20645;-78
2021/12/23 05:08:42;;;;;;;34.88;18.33;;;-3.70;99.90;;;;;;5011372;28;20216;-75
2021/12/23 05:11:07;;;;;;;33.63;17.95;;;-3.80;99.90;;;;;;5029187;28;20192;-76
2021/12/23 05:13:33;;;;;;;42.70;22.63;;;-3.90;99.90;;;;;;5029311;28;20185;-76
2021/12/23 05:15:59;;;;;;;41.17;20.00;;;-3.90;99.90;;;;;;5027914;28;20192;-76
2021/12/23 05:18:24;;;;;;;36.23;18.60;;;-3.90;99.90;;;;;;5027502;28;20223;-77
2021/12/23 05:20:51;;;;;;;37.00;18.63;;;-4.00;99.90;;;;;;5028945;28;20259;-77
2021/12/23 05:23:17;;;;;;;29.35;16.15;;;-4.00;99.90;;;;;;5028971;28;20180;-76
2021/12/23 05:25:42;;;;;;;38.70;17.95;;;-4.00;99.90;;;;;;5027470;28;20184;-77
2021/12/23 05:28:08;;;;;;;34.47;17.47;;;-4.10;99.90;;;;;;5028643;28;20207;-76
2021/12/23 05:30:34;;;;;;;33.00;17.33;;;-4.10;99.90;;;;;;5010956;28;20561;-76
2021/12/23 05:33:00;;;;;;;31.52;16.88;;;-4.10;99.90;;;;;;5030461;28;20773;-76
2021/12/23 05:35:26;;;;;;;32.47;16.50;;;-4.10;99.90;;;;;;5030119;28;20199;-77
2021/12/23 05:37:53;;;;;;;38.43;18.40;;;-4.20;99.90;;;;;;5029340;28;20314;-77
2021/12/23 05:40:21;;;;;;;36.15;19.02;;;-4.10;99.90;;;;;;5031113;28;20187;-77
2021/12/23 05:42:48;;;;;;;35.08;17.85;;;-4.20;99.90;;;;;;5031212;28;20177;-77
2021/12/23 05:45:14;;;;;;;36.50;17.92;;;-4.20;99.90;;;;;;5029504;28;20180;-77
2021/12/23 05:47:40;;;;;;;36.33;17.58;;;-4.20;99.90;;;;;;5030868;28;20826;-78
2021/12/23 05:50:07;;;;;;;34.00;17.40;;;-4.20;99.90;;;;;;5028512;28;20204;-78
2021/12/23 05:52:33;;;;;;;30.02;16.20;;;-4.20;99.90;;;;;;5028637;28;20442;-78
2021/12/23 05:55:01;;;;;;;29.13;15.40;;;-4.30;99.90;;;;;;5028705;28;20177;-76
2021/12/23 05:57:28;;;;;;;35.30;17.77;;;-4.40;99.90;;;;;;5026519;28;21224;-77
2021/12/23 05:59:53;;;;;;;33.65;16.23;;;-4.40;99.90;;;;;;5028955;28;20261;-77
2021/12/23 06:02:19;;;;;;;33.70;16.70;;;-4.40;99.90;;;;;;5029507;28;20276;-77
2021/12/23 06:04:45;;;;;;;35.17;17.73;;;-4.50;99.90;;;;;;5028465;28;20561;-76
2021/12/23 06:07:10;;;;;;;34.20;16.23;;;-4.40;99.90;;;;;;5028739;28;20306;-76
2021/12/23 06:09:36;;;;;;;33.37;17.80;;;-4.50;99.90;;;;;;5013590;28;20627;-76
2021/12/23 06:12:02;;;;;;;31.57;16.10;;;-4.50;99.90;;;;;;5029841;28;20665;-76
2021/12/23 06:14:27;;;;;;;32.43;15.70;;;-4.60;99.90;;;;;;5031465;28;20748;-77
2021/12/23 06:16:53;;;;;;;33.70;15.87;;;-4.60;99.90;;;;;;5030130;28;20482;-76
2021/12/23 06:19:19;;;;;;;31.33;15.93;;;-4.60;99.90;;;;;;5030567;28;20656;-76
2021/12/23 06:21:44;;;;;;;36.03;17.47;;;-4.60;99.90;;;;;;5030471;28;20287;-78
2021/12/23 06:24:10;;;;;;;32.30;16.50;;;-4.50;99.90;;;;;;5032768;28;20176;-77
2021/12/23 06:26:36;;;;;;;32.77;17.03;;;-4.60;99.90;;;;;;5032522;28;20204;-77
2021/12/23 06:29:02;;;;;;;32.37;16.50;;;-4.70;99.90;;;;;;5033144;28;20183;-77
2021/12/23 06:31:27;;;;;;;35.20;17.27;;;-4.60;99.90;;;;;;5042033;28;20275;-76
2021/12/23 06:33:53;;;;;;;37.90;16.90;;;-4.70;99.90;;;;;;5035432;28;20631;-77
2021/12/23 06:36:18;;;;;;;35.20;17.20;;;-4.80;99.90;;;;;;5032263;28;20589;-78
2021/12/23 06:38:45;;;;;;;36.90;17.10;;;-4.80;99.90;;;;;;5031648;28;20715;-76
2021/12/23 06:41:12;;;;;;;35.50;17.05;;;-4.90;99.90;;;;;;5031170;28;20193;-78
2021/12/23 06:43:38;;;;;;;28.80;16.70;;;-4.90;99.90;;;;;;5032396;28;20173;-78
2021/12/23 06:46:04;;;;;;;38.55;16.95;;;-4.80;99.90;;;;;;5033264;28;20212;-78
2021/12/23 06:48:31;;;;;;;37.17;19.10;;;-4.80;99.90;;;;;;5032517;28;20239;-78
2021/12/23 06:50:57;;;;;;;44.58;22.00;;;-4.80;99.90;;;;;;5033361;28;20439;-77
2021/12/23 06:53:24;;;;;;;43.20;22.15;;;-4.70;99.90;;;;;;5015743;28;20185;-78
2021/12/23 06:55:52;;;;;;;49.03;22.85;;;-4.60;99.90;;;;;;5033193;28;20184;-79
2021/12/23 06:58:18;;;;;;;39.70;18.90;;;-4.60;99.90;;;;;;5033936;28;20685;-77
2021/12/23 07:00:45;;;;;;;64.78;30.60;;;-4.50;99.90;;;;;;5030207;28;20191;-78
2021/12/23 07:03:11;;;;;;;54.78;24.83;;;-4.40;99.90;;;;;;5029522;28;20218;-77
2021/12/23 07:05:37;;;;;;;43.33;21.55;;;-4.30;99.90;;;;;;5030791;28;20195;-77
2021/12/23 07:08:11;;;;;;;36.07;18.10;;;-4.30;99.90;;;;;;5015120;28;20205;-77
2021/12/23 07:10:37;;;;;;;33.35;16.58;;;-4.20;99.90;;;;;;5031744;28;20183;-78
2021/12/23 07:13:04;;;;;;;33.53;16.52;;;-4.10;99.90;;;;;;5033547;28;20559;-78
2021/12/23 07:15:32;;;;;;;32.75;15.60;;;-4.10;99.90;;;;;;5031725;28;20212;-78
2021/12/23 07:17:59;;;;;;;32.50;15.88;;;-4.00;99.90;;;;;;5014591;28;20211;-78
2021/12/23 07:20:26;;;;;;;29.35;15.38;;;-3.80;99.90;;;;;;5033032;28;20180;-78
2021/12/23 07:22:52;;;;;;;30.88;16.40;;;-3.70;99.90;;;;;;5031255;28;20646;-78
2021/12/23 07:25:18;;;;;;;30.43;16.10;;;-3.70;99.90;;;;;;5033111;28;20187;-77
2021/12/23 07:27:44;;;;;;;28.53;15.63;;;-3.70;99.90;;;;;;5030850;28;20444;-79
2021/12/23 07:30:13;;;;;;;30.27;15.50;;;-3.80;99.90;;;;;;5032474;28;20180;-78
2021/12/23 07:32:39;;;;;;;29.67;14.90;;;-3.90;99.90;;;;;;5030408;28;20188;-78
2021/12/23 07:35:06;;;;;;;27.83;14.43;;;-3.70;99.90;;;;;;5031932;28;20288;-77
2021/12/23 07:37:31;;;;;;;28.45;12.85;;;-3.50;99.90;;;;;;5029991;28;20566;-78
2021/12/23 07:39:57;;;;;;;26.33;13.47;;;-3.20;99.90;;;;;;5030134;28;20283;-79
2021/12/23 07:42:25;;;;;;;33.40;16.53;;;-3.10;99.90;;;;;;5029291;28;20207;-76
2021/12/23 07:44:51;;;;;;;44.50;19.45;;;-3.10;99.90;;;;;;5028392;28;20246;-77
2021/12/23 07:47:17;;;;;;;41.83;18.40;;;-3.10;99.90;;;;;;5028085;28;20222;-78
2021/12/23 07:49:43;;;;;;;32.80;17.40;;;-3.10;99.90;;;;;;5028206;28;20220;-76
2021/12/23 07:52:09;;;;;;;35.47;17.93;;;-3.10;99.90;;;;;;5027575;28;21087;-77
2021/12/23 07:54:35;;;;;;;37.97;19.27;;;-3.10;99.90;;;;;;5029193;28;21109;-77
2021/12/23 07:57:01;;;;;;;35.97;18.85;;;-3.10;99.90;;;;;;5027487;28;20220;-77
2021/12/23 07:59:28;;;;;;;35.70;17.27;;;-3.10;99.90;;;;;;5029138;28;20184;-76
2021/12/23 08:01:55;;;;;;;34.65;16.65;;;-3.00;99.90;;;;;;5011920;28;20555;-77
2021/12/23 08:04:21;;;;;;;32.20;15.02;;;-2.90;99.90;;;;;;5028636;28;20184;-77
2021/12/23 08:06:52;;;;;;;29.00;13.90;;;-2.80;99.90;;;;;;5011492;28;20180;-78
2021/12/23 08:09:17;;;;;;;29.10;14.50;;;-2.70;99.90;;;;;;5028342;28;20560;-77
2021/12/23 08:11:43;;;;;;;36.10;15.97;;;-2.60;99.90;;;;;;5030058;28;20187;-78
2021/12/23 08:14:09;;;;;;;28.90;15.00;;;-2.60;99.90;;;;;;5028700;28;20184;-77
2021/12/23 08:16:34;;;;;;;29.60;15.30;;;-2.50;99.90;;;;;;5029985;28;20180;-77
2021/12/23 08:19:00;;;;;;;31.97;17.00;;;-2.50;99.90;;;;;;5030096;28;20177;-77
2021/12/23 08:21:28;;;;;;;30.83;18.00;;;-2.40;99.90;;;;;;5028309;28;20188;-77
2021/12/23 08:23:54;;;;;;;38.47;18.65;;;-2.50;99.90;;;;;;5028629;28;20252;-76
2021/12/23 08:26:22;;;;;;;34.25;17.33;;;-2.40;99.90;;;;;;5029852;28;20212;-77
2021/12/23 08:28:48;;;;;;;30.25;17.23;;;-2.40;99.90;;;;;;5028195;28;20232;-77
2021/12/23 08:31:14;;;;;;;30.97;16.70;;;-2.20;99.90;;;;;;5029428;28;20235;-77
2021/12/23 08:33:39;;;;;;;40.73;21.93;;;-2.10;99.90;;;;;;5029097;28;20270;-77
2021/12/23 08:36:05;;;;;;;54.30;26.90;;;-1.20;99.90;;;;;;5029138;28;20669;-79
2021/12/23 08:38:31;;;;;;;56.33;28.10;;;-0.40;99.90;;;;;;5030207;28;20605;-78
2021/12/23 08:40:56;;;;;;;57.60;28.40;;;0.00;99.90;;;;;;5029510;28;20519;-77
2021/12/23 08:43:23;;;;;;;45.10;24.23;;;0.30;99.90;;;;;;5029269;28;20207;-78
2021/12/23 08:45:49;;;;;;;43.75;25.02;;;1.00;99.90;;;;;;5030687;28;20421;-78
2021/12/23 08:48:14;;;;;;;44.23;24.93;;;1.30;99.90;;;;;;5013553;28;20203;-78
2021/12/23 08:50:40;;;;;;;41.07;23.33;;;1.60;99.90;;;;;;5029524;28;20455;-78
2021/12/23 08:53:06;;;;;;;40.90;22.63;;;1.80;99.90;;;;;;5030941;28;20228;-77
2021/12/23 08:55:33;;;;;;;44.53;25.83;;;2.20;99.90;;;;;;5029553;28;20441;-79
2021/12/23 08:58:03;;;;;;;46.47;25.10;;;2.20;99.90;;;;;;5031357;28;20208;-78
2021/12/23 09:00:30;;;;;;;41.05;22.67;;;1.90;99.90;;;;;;5029828;28;20206;-79
2021/12/23 09:02:56;;;;;;;41.72;24.40;;;1.70;99.90;;;;;;5029927;28;20220;-77
2021/12/23 09:05:22;;;;;;;61.13;33.07;;;1.40;99.90;;;;;;5030392;28;20215;-79
2021/12/23 09:07:51;;;;;;;71.37;35.53;;;1.20;99.90;;;;;;5030245;28;20220;-79
2021/12/23 09:10:17;;;;;;;80.70;41.55;;;1.00;99.90;;;;;;5031393;28;20183;-78
2021/12/23 09:12:43;;;;;;;84.07;41.80;;;0.70;99.90;;;;;;5030195;28;20667;-78
2021/12/23 09:15:10;;;;;;;76.25;42.10;;;0.50;99.90;;;;;;5031174;28;20503;-80
2021/12/23 09:17:36;;;;;;;71.28;37.13;;;0.50;99.90;;;;;;5031213;28;20785;-78
2021/12/23 09:20:03;;;;;;;68.77;37.93;;;0.40;99.90;;;;;;5031174;28;20186;-78
2021/12/23 09:22:29;;;;;;;73.47;37.33;;;0.40;99.90;;;;;;5030162;28;20243;-77
2021/12/23 09:24:57;;;;;;;72.17;37.40;;;0.40;99.90;;;;;;5016172;28;20196;-77
2021/12/23 09:27:35;;;;;;;71.03;35.85;;;0.40;99.90;;;;;;5033945;28;20272;-77
2021/12/23 09:32:54;;;;;;;49.45;26.55;;;0.80;99.90;;;;;;5034711;28;20196;-78
2021/12/23 09:35:24;;;;;;;47.25;25.08;;;1.50;99.90;;;;;;5033133;28;20623;-80
2021/12/23 09:37:51;;;;;;;51.38;27.90;;;1.90;99.90;;;;;;5033785;28;20221;-79
2021/12/23 09:40:18;;;;;;;57.58;24.77;;;2.00;99.90;;;;;;5032580;28;20205;-77
2021/12/23 09:42:46;;;;;;;50.88;28.60;;;1.80;99.90;;;;;;5037522;28;20182;-80
2021/12/23 09:45:17;;;;;;;44.30;25.77;;;1.50;99.90;;;;;;5036162;28;20281;-78
2021/12/23 09:47:43;;;;;;;38.58;22.13;;;1.50;99.90;;;;;;5036098;28;20747;-79
2021/12/23 09:50:12;;;;;;;35.78;20.30;;;1.10;99.90;;;;;;5035952;28;20218;-78
2021/12/23 09:52:44;;;;;;;37.13;20.08;;;0.90;99.90;;;;;;5036382;28;20197;-79
2021/12/23 09:55:12;;;;;;;41.33;23.17;;;0.70;99.90;;;;;;5036702;28;20659;-78
2021/12/23 09:57:37;;;;;;;46.67;23.90;;;0.60;99.90;;;;;;5036424;28;20708;-78
2021/12/23 10:00:09;;;;;;;43.90;22.70;;;0.60;99.90;;;;;;5035612;28;20194;-78
2021/12/23 10:02:35;;;;;;;36.53;20.45;;;0.50;99.90;;;;;;5037093;28;20187;-80
2021/12/23 10:05:01;;;;;;;41.80;20.85;;;0.60;99.90;;;;;;5036776;28;20202;-79
2021/12/23 10:07:27;;;;;;;38.78;19.90;;;0.50;99.90;;;;;;5037817;28;20205;-79
2021/12/23 10:38:20;;;;;;;10.60;6.38;;;4.20;99.90;;;;;;5031906;28;20729;-78
2021/12/23 10:40:49;;;;;;;11.80;6.23;;;4.70;99.90;;;;;;5031909;28;20231;-79
2021/12/23 10:43:44;;;;;;;6.07;4.60;;;5.10;99.90;;;;;;5033708;28;20447;-78
2021/12/23 10:46:27;;;;;;;41.47;23.85;;;5.40;99.60;;;;;;5033803;28;20184;-78
2021/12/23 10:49:42;;;;;;;52.15;28.65;;;5.30;99.80;;;;;;5034919;28;20294;-77
2021/12/23 11:00:33;;;;;;;45.30;24.73;;;3.20;99.90;;;;;;5035440;28;20198;-80
2021/12/23 11:03:06;;;;;;;47.10;24.95;;;3.00;99.90;;;;;;5035435;28;20417;-78
2021/12/23 11:05:37;;;;;;;51.90;25.73;;;2.90;99.90;;;;;;5033983;28;20210;-78
2021/12/23 11:11:18;;;;;;;43.40;24.75;;;2.80;99.90;;;;;;5036243;28;20411;-78
2021/12/23 11:36:20;;;;;;;44.03;25.40;;;4.10;99.90;;;;;;5034615;28;20239;-78
2021/12/23 11:39:05;;;;;;;39.93;22.47;;;3.90;99.90;;;;;;5020860;28;20486;-78
2021/12/23 11:41:35;;;;;;;32.30;18.77;;;3.50;99.90;;;;;;5032634;28;20784;-78
2021/12/23 11:44:03;;;;;;;21.83;9.97;;;3.60;99.90;;;;;;5032821;28;20478;-79
2021/12/23 11:46:45;;;;;;;31.00;19.03;;;3.80;99.90;;;;;;5033168;28;20430;-78
2021/12/23 11:49:13;;;;;;;9.35;5.88;;;4.10;99.90;;;;;;5032635;28;20482;-77
2021/12/23 11:51:53;;;;;;;11.47;7.60;;;4.60;99.90;;;;;;5031761;28;20213;-78
2021/12/23 11:54:34;;;;;;;37.37;22.07;;;5.00;99.90;;;;;;5018341;28;20535;-78
2021/12/23 11:57:22;;;;;;;32.28;18.95;;;4.40;99.90;;;;;;5035177;28;20830;-78
2021/12/23 12:00:42;;;;;;;36.37;20.23;;;4.30;99.90;;;;;;5032606;28;20227;-78
2021/12/23 12:02:44;;;;;;;34.47;20.63;;;4.40;99.90;;;;;;5030325;28;20456;-78
2021/12/23 12:05:17;;;;;;;33.03;21.00;;;4.10;99.90;;;;;;5034890;28;20552;-78
2021/12/23 12:07:44;;;;;;;39.83;20.93;;;4.10;99.90;;;;;;5034016;28;20449;-77
2021/12/23 12:10:18;;;;;;;34.07;21.07;;;4.10;99.90;;;;;;5018028;28;20434;-79
2021/12/23 12:12:59;;;;;;;33.10;18.30;;;4.00;99.90;;;;;;5036116;28;20938;-79
2021/12/23 12:15:39;;;;;;;9.40;5.57;;;4.10;99.90;;;;;;5037208;28;20451;-80
2021/12/23 12:18:08;;;;;;;7.97;4.90;;;4.70;99.90;;;;;;5031603;28;20978;-78
2021/12/23 12:20:45;;;;;;;6.17;4.40;;;5.50;98.90;;;;;;5016757;28;20846;-77
2021/12/23 12:23:22;;;;;;;8.37;4.63;;;5.70;99.10;;;;;;5033167;28;20444;-78
2021/12/23 12:26:10;;;;;;;8.43;5.63;;;6.00;97.00;;;;;;5036127;28;20773;-79
2021/12/23 12:28:43;;;;;;;11.33;5.53;;;6.20;96.20;;;;;;5035504;28;20514;-77
2021/12/23 12:31:21;;;;;;;8.37;5.37;;;6.30;96.80;;;;;;5035835;28;20420;-78
2021/12/23 12:33:59;;;;;;;10.23;6.00;;;6.40;97.00;;;;;;5015507;28;20511;-77
2021/12/23 12:36:26;;;;;;;9.17;6.00;;;6.40;96.60;;;;;;5032595;28;20426;-77
2021/12/23 12:38:57;;;;;;;12.33;6.30;;;6.50;97.50;;;;;;5033378;28;20467;-79
2021/12/23 12:41:31;;;;;;;9.27;6.20;;;6.60;97.20;;;;;;5032164;28;20889;-77
2021/12/23 12:47:01;;;;;;;6.53;4.80;;;6.70;96.70;;;;;;5032971;28;20430;-77
2021/12/23 12:49:34;;;;;;;9.60;5.30;;;6.70;96.00;;;;;;5033611;28;20408;-77
2021/12/23 12:52:16;;;;;;;12.17;6.67;;;6.70;95.50;;;;;;5016731;28;20475;-78
2021/12/23 12:54:53;;;;;;;12.40;7.13;;;6.80;95.80;;;;;;5018436;28;20431;-78
2021/12/23 12:57:23;;;;;;;11.20;6.83;;;6.70;97.40;;;;;;5035518;28;21068;-78
2021/12/23 12:59:50;;;;;;;7.27;4.80;;;6.80;97.20;;;;;;5035811;28;20416;-78
2021/12/23 13:02:28;;;;;;;8.73;5.37;;;6.90;94.60;;;;;;5034389;28;20756;-79
2021/12/23 13:05:08;;;;;;;7.60;5.00;;;7.00;94.60;;;;;;5031705;28;20474;-78
2021/12/23 13:07:39;;;;;;;25.37;15.60;;;7.00;96.30;;;;;;5032417;28;20833;-78
2021/12/23 13:10:13;;;;;;;32.20;19.93;;;6.80;98.80;;;;;;5035215;28;20415;-78
2021/12/23 13:12:54;;;;;;;40.17;21.70;;;6.50;99.90;;;;;;5030761;28;20432;-77
2021/12/23 13:15:20;;;;;;;60.73;24.90;;;6.20;99.90;;;;;;5033123;28;20457;-75
2021/12/23 13:17:52;;;;;;;41.00;23.90;;;5.80;99.90;;;;;;5038282;28;20524;-77
2021/12/23 13:20:18;;;;;;;36.77;20.77;;;5.50;99.90;;;;;;5038420;28;20542;-78
2021/12/23 13:22:45;;;;;;;34.73;21.00;;;5.30;99.90;;;;;;5036130;28;20419;-77
2021/12/23 13:25:12;;;;;;;42.60;19.13;;;5.30;99.90;;;;;;5037519;28;20421;-78
2021/12/23 13:27:41;;;;;;;31.40;17.80;;;5.00;99.90;;;;;;5020362;28;20518;-78
2021/12/23 13:30:10;;;;;;;28.53;16.00;;;5.00;99.90;;;;;;5037990;28;20411;-79
2021/12/23 13:32:37;;;;;;;28.83;16.80;;;4.90;99.90;;;;;;5036153;28;20423;-77
2021/12/23 13:35:14;;;;;;;15.53;8.80;;;4.90;99.90;;;;;;5037360;28;20415;-78
2021/12/23 13:37:44;;;;;;;9.00;6.10;;;5.30;99.90;;;;;;5036810;28;20501;-77
2021/12/23 13:40:11;;;;;;;12.50;6.23;;;5.80;99.40;;;;;;5034824;28;20419;-76
2021/12/23 13:42:41;;;;;;;16.43;8.07;;;6.10;98.20;;;;;;5034418;28;20446;-77
2021/12/23 13:45:07;;;;;;;9.33;6.30;;;6.20;99.90;;;;;;5034925;28;20418;-76
2021/12/23 13:47:34;;;;;;;16.47;9.37;;;6.30;99.90;;;;;;5018469;28;20815;-77
2021/12/23 13:50:00;;;;;;;15.23;9.63;;;6.20;99.90;;;;;;5035912;28;21403;-78